Time;durP1;ratioP1;P1;durP2;ratioP2;P2;SDS_P1;SDS_P2;PMS_P1;PMS_P2;Temp;Humidity;BMP_temperature;BMP_pressure;BME280_temperature;BME280_humidity;BME280_pressure;Samples;Min_cycle;Max_cycle;Signal;HPM_P1;HPM_P2
2023/01/13 00:01:39;;;;;;;0.40;0.33;;;8.80;99.90;;;;;;5073702;28;20453;-79
2023/01/13 00:04:06;;;;;;;0.37;0.37;;;8.80;99.90;;;;;;5073501;28;20521;-80
2023/01/13 00:06:32;;;;;;;0.30;0.20;;;8.80;99.90;;;;;;5073500;28;20453;-80
2023/01/13 00:08:59;;;;;;;0.30;0.30;;;8.80;99.90;;;;;;5073619;28;20476;-80
2023/01/13 00:11:26;;;;;;;0.30;0.20;;;8.70;99.90;;;;;;5073292;28;20960;-80
2023/01/13 00:13:54;;;;;;;0.30;0.30;;;8.70;99.90;;;;;;5073117;28;20461;-80
2023/01/13 00:16:21;;;;;;;0.40;0.30;;;8.70;99.90;;;;;;5072917;28;20484;-80
2023/01/13 00:18:49;;;;;;;0.30;0.20;;;8.60;99.90;;;;;;5073451;28;20445;-80
2023/01/13 00:21:18;;;;;;;0.30;0.20;;;8.60;99.90;;;;;;5073507;28;20493;-80
2023/01/13 00:23:45;;;;;;;0.30;0.30;;;8.60;99.90;;;;;;5073340;28;20484;-80
2023/01/13 00:26:14;;;;;;;0.40;0.30;;;8.70;99.90;;;;;;5072924;28;20984;-80
2023/01/13 00:28:41;;;;;;;1.13;0.30;;;8.70;99.90;;;;;;5073335;28;20816;-80
2023/01/13 00:31:11;;;;;;;0.30;0.20;;;8.70;99.90;;;;;;5073081;28;20445;-80
2023/01/13 00:33:38;;;;;;;0.30;0.30;;;8.70;99.90;;;;;;5072601;28;20442;-80
2023/01/13 00:36:07;;;;;;;1.23;0.40;;;8.70;99.90;;;;;;5073191;28;20469;-80
2023/01/13 00:38:36;;;;;;;0.30;0.20;;;8.80;99.90;;;;;;5073233;28;20495;-80
2023/01/13 00:41:05;;;;;;;0.30;0.30;;;8.80;99.90;;;;;;5073209;28;20452;-80
2023/01/13 00:43:32;;;;;;;0.30;0.20;;;8.90;99.90;;;;;;5072849;28;20493;-80
2023/01/13 00:45:59;;;;;;;1.10;0.50;;;8.90;99.90;;;;;;5073064;28;20459;-80
2023/01/13 00:48:28;;;;;;;0.30;0.30;;;8.90;99.90;;;;;;5073185;28;20446;-80
2023/01/13 00:50:56;;;;;;;0.30;0.30;;;8.90;99.90;;;;;;5072868;28;20953;-79
2023/01/13 00:53:23;;;;;;;0.40;0.40;;;8.90;99.90;;;;;;5072818;28;20531;-80
2023/01/13 00:55:49;;;;;;;0.30;0.30;;;8.90;99.90;;;;;;5072983;28;20469;-80
2023/01/13 00:58:16;;;;;;;0.50;0.50;;;8.90;99.90;;;;;;5073053;28;20458;-80
2023/01/13 01:00:44;;;;;;;0.30;0.20;;;9.00;99.90;;;;;;5073039;28;20441;-79
2023/01/13 01:03:11;;;;;;;0.30;0.30;;;9.00;99.90;;;;;;5072922;28;20995;-80
2023/01/13 01:05:39;;;;;;;0.30;0.30;;;9.00;99.90;;;;;;5072603;28;20884;-80
2023/01/13 01:08:06;;;;;;;0.40;0.40;;;9.00;99.90;;;;;;5072943;28;20449;-80
2023/01/13 01:10:33;;;;;;;0.30;0.20;;;8.90;99.90;;;;;;5072677;28;20441;-80
2023/01/13 01:12:59;;;;;;;0.30;0.20;;;9.00;99.90;;;;;;5072987;28;20448;-79
2023/01/13 01:15:26;;;;;;;0.30;0.30;;;9.00;99.90;;;;;;5073149;28;20863;-79
2023/01/13 01:17:53;;;;;;;0.30;0.20;;;8.90;99.90;;;;;;5072905;28;20446;-79
2023/01/13 01:20:20;;;;;;;0.40;0.30;;;9.10;99.90;;;;;;5072641;28;20464;-79
2023/01/13 01:22:48;;;;;;;0.40;0.30;;;9.10;99.90;;;;;;5072907;28;20456;-80
2023/01/13 01:25:15;;;;;;;0.30;0.20;;;9.00;99.90;;;;;;5072510;28;20826;-79
2023/01/13 01:27:41;;;;;;;0.40;0.30;;;9.00;99.90;;;;;;5072903;28;20449;-80
2023/01/13 01:30:09;;;;;;;0.40;0.40;;;9.00;99.90;;;;;;5072604;28;20453;-80
2023/01/13 01:32:36;;;;;;;0.30;0.30;;;9.00;99.90;;;;;;5072740;28;20458;-80
2023/01/13 01:35:03;;;;;;;0.30;0.30;;;9.10;99.90;;;;;;5072269;28;20586;-80
2023/01/13 01:37:30;;;;;;;0.40;0.30;;;9.10;99.90;;;;;;5072681;28;20455;-80
2023/01/13 01:39:58;;;;;;;0.40;0.30;;;9.10;99.90;;;;;;5072624;28;20453;-80
2023/01/13 01:45:17;;;;;;;0.60;0.40;;;9.10;99.90;;;;;;5076074;28;20483;-79
2023/01/13 01:47:45;;;;;;;0.30;0.20;;;9.00;99.90;;;;;;5076234;28;20433;-79
2023/01/13 01:50:12;;;;;;;2.40;0.37;;;9.00;99.90;;;;;;5075849;28;20815;-79
2023/01/13 01:52:43;;;;;;;0.30;0.30;;;8.90;99.90;;;;;;5076117;28;20441;-80
2023/01/13 01:55:15;;;;;;;0.37;0.27;;;8.80;99.90;;;;;;5075771;28;20456;-80
2023/01/13 01:57:48;;;;;;;0.30;0.30;;;8.70;99.90;;;;;;5076081;28;20430;-80
2023/01/13 02:00:15;;;;;;;0.30;0.30;;;8.70;99.90;;;;;;5075745;28;20905;-79
2023/01/13 02:02:45;;;;;;;0.30;0.30;;;8.70;99.90;;;;;;5075521;28;20818;-80
2023/01/13 02:05:13;;;;;;;0.30;0.30;;;8.70;99.90;;;;;;5076121;28;20454;-79
2023/01/13 02:07:42;;;;;;;0.30;0.30;;;8.70;99.90;;;;;;5075844;28;20449;-80
2023/01/13 02:10:15;;;;;;;1.27;0.63;;;8.60;99.90;;;;;;5075773;28;20446;-79
2023/01/13 02:12:43;;;;;;;0.30;0.30;;;8.60;99.90;;;;;;5075515;28;20437;-80
2023/01/13 02:15:12;;;;;;;0.57;0.47;;;8.70;99.90;;;;;;5075196;28;20969;-81
2023/01/13 02:17:59;;;;;;;0.40;0.30;;;8.80;99.90;;;;;;5075680;28;20496;-81
2023/01/13 02:21:13;;;;;;;1.00;0.43;;;8.80;99.90;;;;;;5075615;28;20441;-81
2023/01/13 02:27:39;;;;;;;0.30;0.30;;;8.90;99.90;;;;;;5075591;28;20471;-81
2023/01/13 02:33:30;;;;;;;0.30;0.30;;;8.90;99.90;;;;;;5013804;28;20408;-81
2023/01/13 02:36:02;;;;;;;0.30;0.20;;;8.90;99.90;;;;;;5072986;28;20836;-81
2023/01/13 02:38:34;;;;;;;0.30;0.30;;;8.90;99.90;;;;;;5075369;28;20422;-81
2023/01/13 02:44:07;;;;;;;0.30;0.30;;;8.90;99.90;;;;;;5074695;28;20465;-81
2023/01/13 02:46:42;;;;;;;0.30;0.20;;;8.90;99.90;;;;;;5075129;28;20430;-81
2023/01/13 02:49:13;;;;;;;0.33;0.27;;;8.90;99.90;;;;;;5075034;28;20908;-81
2023/01/13 02:51:43;;;;;;;0.30;0.30;;;8.90;99.90;;;;;;5075260;28;20446;-81
2023/01/13 02:54:14;;;;;;;0.30;0.30;;;8.90;99.90;;;;;;5074868;28;20543;-81
2023/01/13 02:56:44;;;;;;;6.63;0.50;;;8.90;99.90;;;;;;5074571;28;20434;-81
2023/01/13 02:59:12;;;;;;;0.30;0.30;;;8.80;99.90;;;;;;5074944;28;20445;-80
2023/01/13 03:01:42;;;;;;;0.40;0.30;;;8.90;99.90;;;;;;5074497;28;20457;-81
2023/01/13 03:04:12;;;;;;;0.40;0.30;;;8.90;99.90;;;;;;5074615;28;20485;-81
2023/01/13 03:06:50;;;;;;;0.40;0.30;;;8.90;99.90;;;;;;5074973;28;20478;-81
2023/01/13 03:09:22;;;;;;;0.53;0.53;;;8.90;99.90;;;;;;5074375;28;20983;-81
2023/01/13 03:12:04;;;;;;;0.30;0.30;;;8.80;99.90;;;;;;5074883;28;20441;-81
2023/01/13 03:14:38;;;;;;;0.30;0.30;;;8.80;99.90;;;;;;5074232;28;20968;-81
2023/01/13 03:17:21;;;;;;;0.40;0.40;;;8.80;99.90;;;;;;5074549;28;20417;-81
2023/01/13 03:19:57;;;;;;;0.30;0.30;;;8.80;99.90;;;;;;5075311;28;20426;-81
2023/01/13 03:22:32;;;;;;;0.40;0.40;;;8.80;99.90;;;;;;5074391;28;20433;-81
2023/01/13 03:25:03;;;;;;;0.30;0.30;;;8.80;99.90;;;;;;5074260;28;20493;-80
2023/01/13 03:27:36;;;;;;;0.30;0.30;;;8.80;99.90;;;;;;5074318;28;20433;-81
2023/01/13 03:30:07;;;;;;;0.30;0.30;;;8.80;99.90;;;;;;5073914;28;20437;-81
2023/01/13 03:32:39;;;;;;;0.30;0.30;;;9.00;99.90;;;;;;5074192;28;20425;-81
2023/01/13 03:35:14;;;;;;;0.30;0.20;;;8.90;99.90;;;;;;5074142;28;20464;-81
2023/01/13 03:37:45;;;;;;;0.30;0.30;;;8.90;99.90;;;;;;5073848;28;20944;-81
2023/01/13 03:40:15;;;;;;;0.30;0.20;;;9.00;99.90;;;;;;5073752;28;20909;-81
2023/01/13 03:44:20;;;;;;;0.30;0.20;;;9.00;99.90;;;;;;5073995;28;20471;-81
2023/01/13 03:45:34;;;;;;;0.30;0.30;;;9.00;99.90;;;;;;5073361;28;20500;-81
2023/01/13 03:48:07;;;;;;;0.30;0.30;;;8.90;99.90;;;;;;5073784;28;20952;-81
2023/01/13 03:50:38;;;;;;;0.30;0.30;;;9.00;99.90;;;;;;5073611;28;20437;-81
2023/01/13 03:53:10;;;;;;;0.30;0.30;;;8.90;99.90;;;;;;5074171;28;20410;-81
2023/01/13 03:55:44;;;;;;;0.30;0.30;;;8.90;99.90;;;;;;5073441;28;20960;-81
2023/01/13 03:58:15;;;;;;;0.30;0.30;;;9.00;99.90;;;;;;5073850;28;20479;-81
2023/01/13 04:00:47;;;;;;;0.30;0.30;;;9.00;99.90;;;;;;5073760;28;20433;-81
2023/01/13 04:03:23;;;;;;;0.30;0.30;;;9.00;99.90;;;;;;5073407;28;20445;-80
2023/01/13 04:05:56;;;;;;;0.30;0.27;;;9.00;99.90;;;;;;5073199;28;20965;-81
2023/01/13 04:08:25;;;;;;;0.30;0.30;;;9.10;99.90;;;;;;5073047;28;20441;-81
2023/01/13 04:10:56;;;;;;;0.30;0.20;;;9.00;99.90;;;;;;5073540;28;20471;-81
2023/01/13 04:13:28;;;;;;;0.30;0.30;;;9.10;99.90;;;;;;5073595;28;20434;-81
2023/01/13 04:15:55;;;;;;;0.30;0.20;;;9.00;99.90;;;;;;5073257;28;20492;-81
2023/01/13 04:18:25;;;;;;;0.40;0.30;;;9.00;99.90;;;;;;5073475;28;20445;-81
2023/01/13 04:20:54;;;;;;;0.30;0.20;;;9.00;99.90;;;;;;5073962;28;20453;-80
2023/01/13 04:23:21;;;;;;;0.40;0.40;;;9.00;99.90;;;;;;5073399;28;20461;-81
2023/01/13 04:25:49;;;;;;;0.30;0.30;;;9.00;99.90;;;;;;5073229;28;20489;-81
2023/01/13 04:28:17;;;;;;;0.30;0.30;;;9.00;99.90;;;;;;5073378;28;20446;-81
2023/01/13 04:30:45;;;;;;;0.30;0.20;;;9.10;99.90;;;;;;5073311;28;20477;-81
2023/01/13 04:33:13;;;;;;;0.30;0.20;;;9.00;99.90;;;;;;5073345;28;20442;-80
2023/01/13 04:35:41;;;;;;;0.40;0.40;;;9.10;99.90;;;;;;5073440;28;20457;-81
2023/01/13 04:38:11;;;;;;;0.30;0.30;;;9.10;99.90;;;;;;5073208;28;20448;-81
2023/01/13 04:40:38;;;;;;;0.30;0.20;;;9.00;99.90;;;;;;5073249;28;20445;-81
2023/01/13 04:43:05;;;;;;;0.30;0.20;;;9.10;99.90;;;;;;5073232;28;20441;-81
2023/01/13 04:45:32;;;;;;;0.77;0.47;;;9.10;99.90;;;;;;5073063;28;20496;-79
2023/01/13 04:47:59;;;;;;;0.30;0.30;;;9.10;99.90;;;;;;5073195;28;20449;-79
2023/01/13 04:50:26;;;;;;;0.30;0.20;;;9.20;99.90;;;;;;5073181;28;20445;-79
2023/01/13 04:52:54;;;;;;;0.30;0.20;;;9.10;99.90;;;;;;5073140;28;20449;-79
2023/01/13 04:55:23;;;;;;;0.30;0.30;;;9.20;99.90;;;;;;5073014;28;20461;-79
2023/01/13 04:57:50;;;;;;;0.30;0.20;;;9.10;99.90;;;;;;5073053;28;20453;-79
2023/01/13 05:00:19;;;;;;;0.30;0.20;;;9.10;99.90;;;;;;5073023;28;20472;-79
2023/01/13 05:02:46;;;;;;;0.37;0.23;;;9.20;99.90;;;;;;5072994;28;20454;-80
2023/01/13 05:05:13;;;;;;;0.30;0.20;;;9.20;99.90;;;;;;5072884;28;20489;-79
2023/01/13 05:07:39;;;;;;;0.30;0.30;;;9.10;99.90;;;;;;5072877;28;20821;-79
2023/01/13 05:10:08;;;;;;;0.40;0.40;;;9.10;99.90;;;;;;5072978;28;20445;-79
2023/01/13 05:18:04;;;;;;;0.30;0.20;;;9.10;99.90;;;;;;5073812;28;20404;-79
2023/01/13 05:20:31;;;;;;;0.60;0.33;;;9.10;99.90;;;;;;5076455;28;20449;-79
2023/01/13 05:25:43;;;;;;;0.40;0.40;;;9.00;99.90;;;;;;5076282;28;20852;-79
2023/01/13 05:28:10;;;;;;;0.30;0.30;;;9.00;99.90;;;;;;5076526;28;20449;-81
2023/01/13 05:30:41;;;;;;;0.30;0.30;;;9.00;99.90;;;;;;5076520;28;20864;-79
2023/01/13 05:33:07;;;;;;;0.30;0.20;;;9.00;99.90;;;;;;5076166;28;20860;-79
2023/01/13 05:35:34;;;;;;;0.30;0.30;;;8.90;99.90;;;;;;5076575;28;20465;-79
2023/01/13 05:38:01;;;;;;;0.40;0.33;;;9.00;99.90;;;;;;5076394;28;20448;-79
2023/01/13 05:43:23;;;;;;;0.30;0.30;;;9.00;99.90;;;;;;5076119;28;20786;-79
2023/01/13 05:45:52;;;;;;;0.30;0.30;;;9.00;99.90;;;;;;5076343;28;20485;-79
2023/01/13 05:48:20;;;;;;;0.30;0.30;;;9.10;99.90;;;;;;5076000;28;21020;-79
2023/01/13 05:50:48;;;;;;;0.30;0.20;;;9.20;99.90;;;;;;5075918;28;20441;-79
2023/01/13 05:53:15;;;;;;;0.30;0.30;;;9.10;99.90;;;;;;5076078;28;20449;-79
2023/01/13 05:55:42;;;;;;;0.30;0.20;;;9.10;99.90;;;;;;5075984;28;20465;-79
2023/01/13 05:58:09;;;;;;;0.30;0.27;;;9.10;99.90;;;;;;5075726;28;20830;-79
2023/01/13 06:00:38;;;;;;;0.30;0.30;;;9.00;99.90;;;;;;5076235;28;20445;-79
2023/01/13 06:03:05;;;;;;;0.30;0.20;;;9.00;99.90;;;;;;5075618;28;20445;-79
2023/01/13 06:05:32;;;;;;;1.50;1.17;;;9.00;99.90;;;;;;5075439;28;21027;-79
2023/01/13 06:07:59;;;;;;;0.30;0.30;;;9.10;99.90;;;;;;5075555;28;20963;-79
2023/01/13 06:10:27;;;;;;;0.43;0.43;;;9.10;99.90;;;;;;5076055;28;20453;-79
2023/01/13 06:12:54;;;;;;;0.30;0.30;;;9.00;99.90;;;;;;5076001;28;20446;-79
2023/01/13 06:15:21;;;;;;;0.30;0.30;;;9.00;99.90;;;;;;5075277;28;20482;-80
2023/01/13 06:17:50;;;;;;;0.40;0.30;;;9.10;99.90;;;;;;5075688;28;20449;-79
2023/01/13 06:20:17;;;;;;;0.30;0.20;;;9.10;99.90;;;;;;5075657;28;20464;-79
2023/01/13 06:22:47;;;;;;;0.30;0.20;;;9.00;99.90;;;;;;5075290;28;20445;-79
2023/01/13 06:25:22;;;;;;;0.40;0.30;;;9.10;99.90;;;;;;5075417;28;20576;-79
2023/01/13 06:27:49;;;;;;;0.30;0.20;;;9.20;99.90;;;;;;5075584;28;20434;-79
2023/01/13 06:30:16;;;;;;;0.30;0.20;;;9.20;99.90;;;;;;5074459;28;20438;-79
2023/01/13 06:32:47;;;;;;;0.30;0.30;;;9.10;99.90;;;;;;5075395;28;20498;-79
2023/01/13 06:35:18;;;;;;;0.30;0.20;;;9.00;99.90;;;;;;5075372;28;20469;-79
2023/01/13 06:37:47;;;;;;;0.40;0.30;;;9.10;99.90;;;;;;5075324;28;20905;-79
2023/01/13 06:40:14;;;;;;;0.30;0.20;;;9.10;99.90;;;;;;5074998;28;20955;-79
2023/01/13 06:45:29;;;;;;;0.30;0.20;;;9.10;99.90;;;;;;5074999;28;20596;-79
2023/01/13 06:47:57;;;;;;;0.60;0.50;;;9.00;99.90;;;;;;5075172;28;20441;-79
2023/01/13 06:50:26;;;;;;;0.30;0.30;;;9.00;99.90;;;;;;5074825;28;20940;-79
2023/01/13 06:52:53;;;;;;;0.30;0.20;;;9.00;99.90;;;;;;5074726;28;20820;-79
2023/01/13 06:55:20;;;;;;;0.30;0.30;;;8.90;99.90;;;;;;5074836;28;20470;-79
2023/01/13 06:57:49;;;;;;;0.30;0.30;;;8.90;99.90;;;;;;5075191;28;20441;-79
2023/01/13 07:00:16;;;;;;;0.30;0.30;;;8.90;99.90;;;;;;5075103;28;20446;-79
2023/01/13 07:02:43;;;;;;;0.40;0.30;;;8.90;99.90;;;;;;5075071;28;20460;-79
2023/01/13 07:05:10;;;;;;;0.30;0.30;;;8.90;99.90;;;;;;5074636;28;20496;-79
2023/01/13 07:07:38;;;;;;;0.30;0.20;;;9.00;99.90;;;;;;5074712;28;20449;-80
2023/01/13 07:10:07;;;;;;;0.30;0.20;;;9.00;99.90;;;;;;5074637;28;20453;-79
2023/01/13 07:15:17;;;;;;;0.30;0.30;;;9.10;99.90;;;;;;5074639;28;20460;-79
2023/01/13 07:15:19;;;;;;;0.30;0.30;;;9.20;99.90;;;;;;5073963;28;20500;-80
2023/01/13 07:17:46;;;;;;;0.50;0.30;;;9.20;99.90;;;;;;5074641;28;20937;-79
2023/01/13 07:20:13;;;;;;;0.50;0.50;;;9.20;99.90;;;;;;5074700;28;20904;-79
2023/01/13 07:22:41;;;;;;;0.30;0.30;;;9.10;99.90;;;;;;5074319;28;20452;-79
2023/01/13 07:25:09;;;;;;;0.30;0.30;;;9.10;99.90;;;;;;5074231;28;20486;-79
2023/01/13 07:27:36;;;;;;;0.30;0.30;;;9.10;99.90;;;;;;5074326;28;20449;-79
2023/01/13 07:30:03;;;;;;;0.30;0.30;;;9.10;99.90;;;;;;5074022;28;20915;-79
2023/01/13 07:32:31;;;;;;;0.30;0.20;;;9.10;99.90;;;;;;5074311;28;20457;-79
2023/01/13 07:35:03;;;;;;;0.30;0.20;;;9.10;99.90;;;;;;5074143;28;20556;-79
2023/01/13 07:37:30;;;;;;;0.40;0.30;;;9.10;99.90;;;;;;5074172;28;20457;-79
2023/01/13 07:39:58;;;;;;;1.13;0.30;;;9.20;99.90;;;;;;5073873;28;20414;-79
2023/01/13 07:45:07;;;;;;;0.30;0.20;;;9.20;99.90;;;;;;5051235;28;20469;-79
2023/01/13 07:47:34;;;;;;;0.40;0.30;;;9.20;99.90;;;;;;5073701;28;20783;-79
2023/01/13 07:50:00;;;;;;;0.30;0.30;;;9.30;99.90;;;;;;5073874;28;20457;-79
2023/01/13 07:52:27;;;;;;;0.30;0.30;;;9.30;99.90;;;;;;5073579;28;20441;-79
2023/01/13 07:54:54;;;;;;;0.30;0.20;;;9.30;99.90;;;;;;5073974;28;20502;-79
2023/01/13 07:57:22;;;;;;;0.30;0.20;;;9.40;99.90;;;;;;5074618;28;20434;-79
2023/01/13 07:59:48;;;;;;;0.40;0.30;;;9.40;99.90;;;;;;5073702;28;20841;-79
2023/01/13 08:02:15;;;;;;;0.30;0.20;;;9.30;99.90;;;;;;5073710;28;20449;-79
2023/01/13 08:04:42;;;;;;;0.30;0.30;;;9.30;99.90;;;;;;5073522;28;20473;-79
2023/01/13 08:07:08;;;;;;;0.30;0.20;;;9.40;99.90;;;;;;5073595;28;20452;-79
2023/01/13 08:09:35;;;;;;;0.30;0.30;;;9.30;99.90;;;;;;5073557;28;20445;-79
2023/01/13 08:14:49;;;;;;;0.30;0.30;;;9.50;99.90;;;;;;5073318;28;20865;-79
2023/01/13 08:17:15;;;;;;;0.30;0.30;;;9.60;99.90;;;;;;5073510;28;20438;-79
2023/01/13 08:19:42;;;;;;;0.30;0.30;;;9.70;99.90;;;;;;5073458;28;20445;-78
2023/01/13 08:22:09;;;;;;;0.43;0.43;;;9.70;99.90;;;;;;5073117;28;20937;-78
2023/01/13 08:24:35;;;;;;;0.40;0.30;;;9.70;99.90;;;;;;5073298;28;20465;-78
2023/01/13 08:27:02;;;;;;;0.30;0.20;;;9.70;99.90;;;;;;5073087;28;20944;-77
2023/01/13 08:29:29;;;;;;;0.30;0.20;;;9.50;99.90;;;;;;5073368;28;20532;-77
2023/01/13 08:31:57;;;;;;;0.30;0.30;;;9.20;99.90;;;;;;5073199;28;21035;-77
2023/01/13 08:34:24;;;;;;;0.30;0.30;;;9.20;99.90;;;;;;5073301;28;20472;-77
2023/01/13 08:36:50;;;;;;;0.30;0.20;;;9.10;99.90;;;;;;5072969;28;20937;-77
2023/01/13 08:39:18;;;;;;;0.30;0.20;;;9.00;99.90;;;;;;5073269;28;20459;-77
2023/01/13 08:41:57;;;;;;;0.30;0.27;;;8.90;99.90;;;;;;5073432;28;20450;-77
2023/01/13 08:44:25;;;;;;;0.30;0.30;;;8.80;99.90;;;;;;5073099;28;20488;-77
2023/01/13 08:46:53;;;;;;;0.30;0.30;;;8.80;99.90;;;;;;5073162;28;20521;-77
2023/01/13 08:49:22;;;;;;;0.30;0.30;;;8.80;99.90;;;;;;5073195;28;20449;-77
2023/01/13 08:51:49;;;;;;;0.30;0.23;;;8.80;99.90;;;;;;5072869;28;20963;-78
2023/01/13 08:54:17;;;;;;;0.30;0.20;;;8.70;99.90;;;;;;5076227;28;20469;-77
2023/01/13 08:56:45;;;;;;;0.30;0.30;;;8.70;99.90;;;;;;5077157;28;20945;-78
2023/01/13 08:59:12;;;;;;;0.30;0.23;;;8.70;99.90;;;;;;5077250;28;20449;-78
2023/01/13 09:01:41;;;;;;;0.40;0.30;;;8.70;99.90;;;;;;5077280;28;20452;-78
2023/01/13 09:04:13;;;;;;;0.30;0.30;;;8.60;99.90;;;;;;5077231;28;20434;-79
2023/01/13 09:06:41;;;;;;;0.30;0.30;;;8.60;99.90;;;;;;5077761;28;20469;-79
2023/01/13 09:09:08;;;;;;;0.30;0.30;;;8.60;99.90;;;;;;5076986;28;20445;-80
2023/01/13 09:14:37;;;;;;;0.30;0.30;;;8.50;99.90;;;;;;5034643;28;20447;-80
2023/01/13 09:17:04;;;;;;;0.30;0.20;;;8.50;99.90;;;;;;5067042;28;20437;-80
2023/01/13 09:19:30;;;;;;;0.30;0.30;;;8.50;99.90;;;;;;5076844;28;20445;-80
2023/01/13 09:21:59;;;;;;;0.30;0.30;;;8.60;99.90;;;;;;5076449;28;20812;-80
2023/01/13 09:24:26;;;;;;;0.30;0.30;;;8.60;99.90;;;;;;5076782;28;20457;-80
2023/01/13 09:26:53;;;;;;;0.30;0.30;;;8.60;99.90;;;;;;5076543;28;20482;-80
2023/01/13 09:29:20;;;;;;;0.30;0.27;;;8.60;99.90;;;;;;5076726;28;20449;-80
2023/01/13 09:31:47;;;;;;;0.30;0.20;;;8.50;99.90;;;;;;5076584;28;20449;-80
2023/01/13 09:37:02;;;;;;;0.30;0.20;;;8.50;99.90;;;;;;5076565;28;20398;-80
2023/01/13 09:39:29;;;;;;;0.30;0.20;;;8.40;99.90;;;;;;5076146;28;20786;-80
2023/01/13 09:44:50;;;;;;;0.30;0.20;;;8.20;99.90;;;;;;5058472;28;20457;-80
2023/01/13 09:47:23;;;;;;;0.30;0.20;;;8.10;99.90;;;;;;5076383;28;20465;-80
2023/01/13 09:49:52;;;;;;;0.30;0.20;;;8.20;99.90;;;;;;5075966;28;20909;-79
2023/01/13 09:52:23;;;;;;;0.30;0.30;;;8.10;99.90;;;;;;5076022;28;20998;-79
2023/01/13 09:54:54;;;;;;;0.30;0.30;;;8.00;99.90;;;;;;5076128;28;20461;-80
2023/01/13 09:57:21;;;;;;;0.30;0.30;;;8.00;99.90;;;;;;5075850;28;20929;-80
2023/01/13 09:59:49;;;;;;;0.30;0.20;;;8.00;99.90;;;;;;5076067;28;20478;-80
2023/01/13 10:02:30;;;;;;;0.30;0.20;;;7.90;99.90;;;;;;5076078;28;20441;-80
2023/01/13 10:05:14;;;;;;;0.40;0.30;;;7.80;99.90;;;;;;5074551;28;20548;-80
2023/01/13 10:07:47;;;;;;;0.30;0.20;;;7.80;99.90;;;;;;5076039;28;20430;-80
2023/01/13 10:10:20;;;;;;;0.30;0.20;;;7.80;99.90;;;;;;5075612;28;20971;-80
2023/01/13 10:15:34;;;;;;;0.30;0.30;;;7.80;99.90;;;;;;5075560;28;20558;-79
2023/01/13 10:18:09;;;;;;;0.40;0.33;;;7.90;99.90;;;;;;5076002;28;20438;-80
2023/01/13 10:20:46;;;;;;;0.30;0.20;;;8.60;99.90;;;;;;5076108;28;20452;-79
2023/01/13 10:23:37;;;;;;;0.30;0.30;;;9.20;99.90;;;;;;5075455;28;20430;-80
2023/01/13 10:26:16;;;;;;;0.30;0.20;;;9.70;99.90;;;;;;5075523;28;20490;-79
2023/01/13 10:28:50;;;;;;;0.30;0.30;;;9.90;99.90;;;;;;5076156;28;20478;-79
2023/01/13 10:31:18;;;;;;;0.40;0.30;;;10.00;99.90;;;;;;5075534;28;20437;-79
2023/01/13 10:33:45;;;;;;;0.30;0.23;;;9.90;99.90;;;;;;5075618;28;20550;-80
2023/01/13 10:36:14;;;;;;;0.40;0.30;;;9.70;99.90;;;;;;5075344;28;20461;-79
2023/01/13 10:38:44;;;;;;;0.30;0.20;;;9.70;99.90;;;;;;5075436;28;20445;-79
2023/01/13 10:41:19;;;;;;;0.30;0.30;;;9.50;99.90;;;;;;5075752;28;20438;-79
2023/01/13 10:43:59;;;;;;;0.30;0.20;;;9.60;99.90;;;;;;5075449;28;20453;-79
2023/01/13 10:46:27;;;;;;;0.30;0.30;;;9.50;99.90;;;;;;5075370;28;20465;-79
2023/01/13 10:48:55;;;;;;;0.30;0.20;;;9.40;99.90;;;;;;5074940;28;20457;-79
2023/01/13 10:51:25;;;;;;;0.30;0.20;;;9.10;99.90;;;;;;5075208;28;20449;-80
2023/01/13 10:53:57;;;;;;;0.30;0.20;;;8.90;99.90;;;;;;5074793;28;20829;-80
2023/01/13 10:56:25;;;;;;;0.30;0.20;;;8.70;99.90;;;;;;5074862;28;20426;-84
2023/01/13 10:58:52;;;;;;;0.30;0.20;;;8.50;99.90;;;;;;5074833;28;20937;-84
2023/01/13 11:01:26;;;;;;;0.30;0.30;;;8.20;99.90;;;;;;5074996;28;20818;-85
2023/01/13 11:03:55;;;;;;;0.30;0.20;;;8.10;99.90;;;;;;5074941;28;20478;-86
2023/01/13 11:06:24;;;;;;;0.30;0.20;;;7.90;99.90;;;;;;5075156;28;20481;-85
2023/01/13 11:08:54;;;;;;;0.30;0.30;;;7.80;99.90;;;;;;5074618;28;20449;-82
2023/01/13 11:11:41;;;;;;;0.30;0.30;;;7.70;99.90;;;;;;5074328;28;21057;-82
2023/01/13 11:14:35;;;;;;;0.30;0.30;;;7.70;99.90;;;;;;5074615;28;20798;-83
2023/01/13 11:17:08;;;;;;;0.67;0.27;;;7.70;99.90;;;;;;5074013;28;20913;-83
2023/01/13 11:19:39;;;;;;;0.30;0.20;;;7.60;99.90;;;;;;5074594;28;20487;-83
2023/01/13 11:22:10;;;;;;;0.30;0.20;;;7.50;99.90;;;;;;5074598;28;20430;-82
2023/01/13 11:24:43;;;;;;;0.30;0.20;;;7.50;99.90;;;;;;5074991;28;20453;-83
2023/01/13 11:27:16;;;;;;;0.30;0.20;;;7.40;99.90;;;;;;5074384;28;20505;-82
2023/01/13 11:29:58;;;;;;;0.30;0.20;;;7.30;99.90;;;;;;5074369;28;20425;-82
2023/01/13 11:32:27;;;;;;;0.30;0.30;;;7.20;99.90;;;;;;5074286;28;20813;-82
2023/01/13 11:35:00;;;;;;;0.50;0.50;;;7.10;99.90;;;;;;5075009;28;20466;-82
2023/01/13 11:37:30;;;;;;;0.30;0.30;;;7.00;99.90;;;;;;5073944;28;20487;-82
2023/01/13 11:40:04;;;;;;;0.30;0.20;;;6.90;99.90;;;;;;5073901;28;20808;-83
2023/01/13 11:42:37;;;;;;;0.30;0.20;;;6.80;99.90;;;;;;5074027;28;20441;-83
2023/01/13 11:45:15;;;;;;;0.30;0.23;;;6.70;99.90;;;;;;5074237;28;20473;-83
2023/01/13 11:47:43;;;;;;;0.30;0.20;;;6.60;99.90;;;;;;5074146;28;20469;-84
2023/01/13 11:50:17;;;;;;;0.30;0.20;;;6.60;99.90;;;;;;5074212;28;20449;-84
2023/01/13 11:53:00;;;;;;;0.30;0.20;;;6.60;99.90;;;;;;5074994;28;20843;-84
2023/01/13 11:55:34;;;;;;;0.57;0.40;;;6.70;99.90;;;;;;5074523;28;20469;-84
2023/01/13 11:58:34;;;;;;;0.30;0.20;;;6.60;99.90;;;;;;5074106;28;20432;-84
2023/01/13 12:01:18;;;;;;;0.30;0.20;;;6.60;99.90;;;;;;5040466;28;20458;-83
2023/01/13 12:03:50;;;;;;;0.30;0.30;;;6.70;99.90;;;;;;5074051;28;20438;-84
2023/01/13 12:06:31;;;;;;;0.30;0.30;;;6.80;99.90;;;;;;5074207;28;20860;-85
2023/01/13 12:09:13;;;;;;;0.30;0.20;;;6.80;99.90;;;;;;5075415;28;20430;-84
2023/01/13 12:14:50;;;;;;;0.30;0.20;;;7.00;99.90;;;;;;5080116;28;20453;-84
2023/01/13 12:17:26;;;;;;;0.30;0.30;;;7.10;99.90;;;;;;5079404;28;20433;-85
2023/01/13 12:19:52;;;;;;;0.30;0.30;;;7.10;99.90;;;;;;5078328;28;20440;-84
2023/01/13 12:22:25;;;;;;;0.30;0.20;;;7.10;99.90;;;;;;5078709;28;20801;-84
2023/01/13 12:24:59;;;;;;;0.40;0.40;;;7.00;99.90;;;;;;5080178;28;20465;-85
2023/01/13 12:27:41;;;;;;;0.30;0.30;;;6.90;99.90;;;;;;5080146;28;20465;-84
2023/01/13 12:30:23;;;;;;;0.50;0.50;;;6.80;99.90;;;;;;5083759;28;20445;-84
2023/01/13 12:32:52;;;;;;;0.30;0.20;;;6.80;99.90;;;;;;5084154;28;20445;-84
2023/01/13 12:35:30;;;;;;;0.30;0.30;;;6.80;99.90;;;;;;5082757;28;20462;-85
2023/01/13 12:38:04;;;;;;;0.30;0.20;;;6.80;99.90;;;;;;5081463;28;20430;-84
2023/01/13 12:40:42;;;;;;;0.30;0.20;;;6.90;99.90;;;;;;5080280;28;20488;-85
2023/01/13 12:46:38;;;;;;;0.30;0.30;;;7.00;99.90;;;;;;5078133;28;20445;-85
2023/01/13 12:49:07;;;;;;;0.30;0.20;;;7.20;99.90;;;;;;5075086;28;20436;-84
2023/01/13 12:51:35;;;;;;;0.30;0.30;;;7.20;99.90;;;;;;5075305;28;20449;-84
2023/01/13 12:54:03;;;;;;;0.30;0.20;;;7.10;99.90;;;;;;5075442;28;20886;-84
2023/01/13 12:56:38;;;;;;;0.30;0.20;;;7.10;99.90;;;;;;5075454;28;20449;-84
2023/01/13 12:59:47;;;;;;;0.30;0.30;;;7.00;99.90;;;;;;5075129;28;20426;-84
2023/01/13 13:02:36;;;;;;;0.40;0.30;;;6.90;99.90;;;;;;5074486;28;20465;-84
2023/01/13 13:05:31;;;;;;;0.30;0.30;;;6.80;99.90;;;;;;5074239;28;20543;-84
2023/01/13 13:08:06;;;;;;;0.30;0.30;;;6.80;99.90;;;;;;5073418;28;20487;-83
2023/01/13 13:10:37;;;;;;;0.30;0.30;;;6.80;99.90;;;;;;5074249;28;20777;-84
2023/01/13 13:13:19;;;;;;;0.30;0.30;;;6.90;99.90;;;;;;5073763;28;20437;-83
2023/01/13 13:15:47;;;;;;;0.30;0.30;;;6.80;99.90;;;;;;5072910;28;20489;-81
2023/01/13 13:18:29;;;;;;;0.30;0.30;;;6.80;99.90;;;;;;5072677;28;20976;-80
2023/01/13 13:20:59;;;;;;;0.30;0.20;;;6.80;99.90;;;;;;5073113;28;20555;-80
2023/01/13 13:23:28;;;;;;;1.00;0.47;;;6.80;99.90;;;;;;5072926;28;20438;-80
2023/01/13 13:26:05;;;;;;;0.30;0.20;;;6.80;99.90;;;;;;5072790;28;20469;-80
2023/01/13 13:28:36;;;;;;;0.30;0.20;;;6.80;99.90;;;;;;5072809;28;20429;-80
2023/01/13 13:31:20;;;;;;;0.30;0.30;;;6.80;99.90;;;;;;5072782;28;20483;-80
2023/01/13 13:34:06;;;;;;;0.30;0.30;;;6.80;99.90;;;;;;5072508;28;20436;-80
2023/01/13 13:37:01;;;;;;;0.40;0.30;;;6.90;99.90;;;;;;5072435;28;20418;-80
2023/01/13 13:47:59;;;;;;;0.30;0.20;;;7.00;99.90;;;;;;5076588;28;20453;-80
2023/01/13 13:50:32;;;;;;;3.20;0.40;;;7.10;99.90;;;;;;5076262;28;20451;-79
2023/01/13 13:53:04;;;;;;;0.30;0.20;;;7.20;99.90;;;;;;5076834;28;20503;-81
2023/01/13 13:55:32;;;;;;;0.30;0.20;;;7.40;99.90;;;;;;5076376;28;20469;-80
2023/01/13 13:58:00;;;;;;;0.83;0.47;;;7.50;99.90;;;;;;5076073;28;20445;-79
2023/01/13 14:00:29;;;;;;;0.30;0.30;;;7.60;99.90;;;;;;5075676;28;21036;-79
2023/01/13 14:02:59;;;;;;;1.37;0.30;;;7.80;99.90;;;;;;5075947;28;20511;-79
2023/01/13 14:05:29;;;;;;;0.30;0.20;;;7.90;99.90;;;;;;5075605;28;20897;-79
2023/01/13 14:08:01;;;;;;;0.30;0.20;;;8.00;99.90;;;;;;5075782;28;20854;-79
2023/01/13 14:10:33;;;;;;;0.30;0.20;;;8.10;99.90;;;;;;5075822;28;20446;-79
2023/01/13 14:13:02;;;;;;;0.30;0.20;;;8.10;99.90;;;;;;5075653;28;20529;-79
2023/01/13 14:15:33;;;;;;;2.10;0.30;;;8.10;99.90;;;;;;5075176;28;21042;-79